createdAt,value
2023-06-05T00:00:16.025Z,12.13
2023-06-05T00:02:42.999Z,9.70
2023-06-05T00:05:10.976Z,12.20
2023-06-05T00:07:40.683Z,11.75
2023-06-05T00:10:09.835Z,12.05
2023-06-05T00:12:37.260Z,11.30
2023-06-05T00:15:06.165Z,13.38
2023-06-05T00:17:33.293Z,12.63
2023-06-05T00:20:00.236Z,12.70
2023-06-05T00:22:29.356Z,12.80
2023-06-05T00:24:56.618Z,13.57
2023-06-05T00:27:23.551Z,12.20
2023-06-05T00:29:54.930Z,15.23
2023-06-05T00:32:21.798Z,14.40
2023-06-05T00:34:51.363Z,12.48
2023-06-05T00:37:18.295Z,12.02
2023-06-05T00:39:45.157Z,13.00
2023-06-05T00:42:12.180Z,12.63
2023-06-05T00:44:39.119Z,12.07
2023-06-05T00:47:06.415Z,12.88
2023-06-05T00:49:38.289Z,11.25
2023-06-05T00:52:05.503Z,12.40
2023-06-05T00:54:32.512Z,11.30
2023-06-05T00:56:59.462Z,14.20
2023-06-05T00:59:27.766Z,12.27
2023-06-05T01:01:55.541Z,12.05
2023-06-05T01:04:24.840Z,13.55
2023-06-05T01:06:52.893Z,11.90
2023-06-05T01:09:20.112Z,12.37
2023-06-05T01:11:57.408Z,13.02
2023-06-05T01:14:25.633Z,13.77
2023-06-05T01:16:57.784Z,12.32
2023-06-05T01:19:33.032Z,13.25
2023-06-05T01:22:00.726Z,12.75
2023-06-05T01:24:29.286Z,11.98
2023-06-05T01:26:56.307Z,13.57
2023-06-05T01:29:29.693Z,13.43
2023-06-05T01:32:02.593Z,12.20
2023-06-05T01:34:29.883Z,14.40
2023-06-05T01:36:57.503Z,11.85
2023-06-05T01:39:24.998Z,13.80
2023-06-05T01:41:53.226Z,11.02
2023-06-05T01:47:20.199Z,11.40
2023-06-05T01:58:39.910Z,16.17
2023-06-05T02:01:07.156Z,14.55
2023-06-05T02:03:34.482Z,15.73
2023-06-05T02:06:01.774Z,13.62
2023-06-05T02:08:36.772Z,12.50
2023-06-05T02:11:04.206Z,14.68
2023-06-05T02:13:31.256Z,13.60
2023-06-05T02:15:58.679Z,12.20
2023-06-05T02:18:26.990Z,12.80
2023-06-05T02:20:57.599Z,12.00
2023-06-05T02:23:26.081Z,12.82
2023-06-05T02:25:53.293Z,12.40
2023-06-05T02:28:21.657Z,12.02
2023-06-05T02:30:49.159Z,12.07
2023-06-05T02:33:16.335Z,15.27
2023-06-05T02:35:43.465Z,14.20
2023-06-05T02:38:11.423Z,12.85
2023-06-05T02:40:38.366Z,13.20
2023-06-05T02:43:06.841Z,12.50
2023-06-05T02:45:36.006Z,14.73
2023-06-05T02:48:03.104Z,11.30
2023-06-05T02:50:30.278Z,14.57
2023-06-05T02:52:57.341Z,13.70
2023-06-05T02:55:24.285Z,14.63
2023-06-05T02:57:51.204Z,13.45
2023-06-05T03:00:18.742Z,13.07
2023-06-05T03:02:49.964Z,13.90
2023-06-05T03:05:19.483Z,14.95
2023-06-05T03:07:47.202Z,13.50
2023-06-05T03:10:14.129Z,11.63
2023-06-05T03:12:41.046Z,15.25
2023-06-05T03:15:08.850Z,12.57
2023-06-05T03:17:35.908Z,11.65
2023-06-05T03:20:03.301Z,13.23
2023-06-05T03:22:30.221Z,12.48
2023-06-05T03:24:57.076Z,12.23
2023-06-05T03:27:23.952Z,15.60
2023-06-05T03:29:51.896Z,12.85
2023-06-05T03:32:18.791Z,13.62
2023-06-05T03:34:49.848Z,13.07
2023-06-05T03:37:16.889Z,12.45
2023-06-05T03:39:43.995Z,12.13
2023-06-05T03:42:12.358Z,12.02
2023-06-05T03:44:39.349Z,10.65
2023-06-05T03:47:07.336Z,11.48
2023-06-05T03:49:34.296Z,11.68
2023-06-05T03:52:04.960Z,13.68
2023-06-05T03:54:35.014Z,13.90
2023-06-05T03:57:01.944Z,12.77
2023-06-05T03:59:29.860Z,12.60
2023-06-05T04:01:58.180Z,13.55
2023-06-05T04:04:25.176Z,12.95
2023-06-05T04:06:55.379Z,13.70
2023-06-05T04:09:22.358Z,12.18
2023-06-05T04:11:50.683Z,11.98
2023-06-05T04:14:17.590Z,12.15
2023-06-05T04:16:44.936Z,10.40
2023-06-05T04:19:13.473Z,14.13
2023-06-05T04:21:40.786Z,10.55
2023-06-05T04:24:10.833Z,11.73
2023-06-05T04:26:39.231Z,11.50
2023-06-05T04:29:14.893Z,12.98
2023-06-05T04:31:43.042Z,12.25
2023-06-05T04:34:10.051Z,14.23
2023-06-05T04:36:37.573Z,11.80
2023-06-05T04:39:05.715Z,11.60
2023-06-05T04:41:33.876Z,11.23
2023-06-05T04:44:03.713Z,12.73
2023-06-05T04:46:30.660Z,13.05
2023-06-05T04:48:59.028Z,15.32
2023-06-05T04:51:26.381Z,13.62
2023-06-05T04:53:54.033Z,11.73
2023-06-05T04:56:24.502Z,13.85
2023-06-05T04:58:53.295Z,16.33
2023-06-05T05:01:21.027Z,10.73
2023-06-05T05:03:48.443Z,16.58
2023-06-05T05:06:16.389Z,14.77
2023-06-05T05:08:46.371Z,13.50
2023-06-05T05:11:14.141Z,12.20
2023-06-05T05:13:41.171Z,11.32
2023-06-05T05:16:12.146Z,12.02
2023-06-05T05:18:45.328Z,11.20
2023-06-05T05:21:12.285Z,12.48
2023-06-05T05:23:39.283Z,13.55
2023-06-05T05:26:06.424Z,16.83
2023-06-05T05:28:33.435Z,12.50
2023-06-05T05:31:01.448Z,16.73
2023-06-05T05:33:28.340Z,11.98
2023-06-05T05:35:55.267Z,11.98
2023-06-05T05:38:22.424Z,10.13
2023-06-05T05:40:50.822Z,11.57
2023-06-05T05:43:19.311Z,12.35
2023-06-05T05:45:46.271Z,11.05
2023-06-05T05:48:13.197Z,14.90
2023-06-05T05:50:42.110Z,14.10
2023-06-05T05:53:09.104Z,13.43
2023-06-05T05:55:36.032Z,14.13
2023-06-05T05:58:03.212Z,14.25
2023-06-05T06:00:30.212Z,14.50
2023-06-05T06:02:57.421Z,13.93
2023-06-05T06:05:24.523Z,12.40
2023-06-05T06:07:51.527Z,13.57
2023-06-05T06:10:18.822Z,11.55
2023-06-05T06:12:46.575Z,15.02
2023-06-05T06:15:13.492Z,12.75
2023-06-05T06:17:41.269Z,12.60
2023-06-05T06:20:12.807Z,12.52
2023-06-05T06:22:40.321Z,12.75
2023-06-05T06:25:08.772Z,11.48
2023-06-05T06:27:36.128Z,11.12
2023-06-05T06:30:04.128Z,13.40
2023-06-05T06:32:31.089Z,12.52
2023-06-05T06:34:58.603Z,11.70
2023-06-05T06:37:25.733Z,12.52
2023-06-05T06:39:52.637Z,14.18
2023-06-05T06:42:19.690Z,14.50
2023-06-05T06:44:46.589Z,11.75
2023-06-05T06:47:13.526Z,12.35
2023-06-05T06:49:42.136Z,15.05
2023-06-05T06:52:09.150Z,16.70
2023-06-05T06:54:37.393Z,13.75
2023-06-05T06:57:04.411Z,14.45
2023-06-05T06:59:31.402Z,15.88
2023-06-05T07:02:13.309Z,12.10
2023-06-05T07:04:42.792Z,15.20
2023-06-05T07:07:13.957Z,19.15
2023-06-05T07:09:41.862Z,13.15
2023-06-05T07:12:13.952Z,14.25
2023-06-05T07:14:41.562Z,15.27
2023-06-05T07:17:08.999Z,13.73
2023-06-05T07:19:37.785Z,12.55
2023-06-05T07:22:05.673Z,15.80
2023-06-05T07:24:33.309Z,13.50
2023-06-05T07:27:04.141Z,14.57
2023-06-05T07:29:31.424Z,12.20
2023-06-05T07:32:00.244Z,12.50
2023-06-05T07:34:28.153Z,12.65
2023-06-05T07:36:56.915Z,14.75
2023-06-05T07:39:24.386Z,15.50
2023-06-05T07:41:51.318Z,13.60
2023-06-05T07:44:20.074Z,12.63
2023-06-05T07:46:48.244Z,11.38
2023-06-05T07:49:18.758Z,12.90
2023-06-05T07:51:48.987Z,15.38
2023-06-05T07:54:20.610Z,11.73
2023-06-05T07:56:50.427Z,13.27
2023-06-05T07:59:17.924Z,13.52
2023-06-05T08:01:46.641Z,11.85
2023-06-05T08:04:14.054Z,13.18
2023-06-05T08:06:41.563Z,13.35
2023-06-05T08:09:10.613Z,12.73
2023-06-05T08:11:38.692Z,17.62
2023-06-05T08:14:09.210Z,13.05
2023-06-05T08:16:40.433Z,11.75
2023-06-05T08:19:07.949Z,12.10
2023-06-05T08:21:35.480Z,14.93
2023-06-05T08:24:02.510Z,13.02
2023-06-05T08:26:29.499Z,11.88
2023-06-05T08:28:56.451Z,13.15
2023-06-05T08:31:23.463Z,11.77
2023-06-05T08:33:50.409Z,11.73
2023-06-05T08:36:17.737Z,11.12
2023-06-05T08:38:45.362Z,11.00
2023-06-05T08:41:15.026Z,12.05
2023-06-05T08:43:45.825Z,11.48
2023-06-05T08:46:13.764Z,12.37
2023-06-05T08:48:48.097Z,12.88
2023-06-05T08:51:16.834Z,11.95
2023-06-05T08:53:51.143Z,13.07
2023-06-05T08:56:18.837Z,12.52
2023-06-05T08:58:46.509Z,14.77
2023-06-05T09:01:13.539Z,13.18
2023-06-05T09:03:40.522Z,11.88
2023-06-05T09:06:07.934Z,15.68
2023-06-05T09:08:35.876Z,12.77
2023-06-05T09:11:22.515Z,12.20
2023-06-05T09:13:50.664Z,13.73
2023-06-05T09:16:21.673Z,16.12
2023-06-05T09:19:04.549Z,14.13
2023-06-05T09:21:36.907Z,15.48
2023-06-05T09:24:20.115Z,13.77
2023-06-05T09:26:51.831Z,14.73
2023-06-05T09:29:44.943Z,15.93
2023-06-05T09:32:21.553Z,16.95
2023-06-05T09:35:00.780Z,13.25
2023-06-05T09:37:36.508Z,11.90
2023-06-05T09:40:06.519Z,11.35
2023-06-05T09:42:34.376Z,13.70
2023-06-05T09:45:02.632Z,11.73
2023-06-05T09:47:35.650Z,11.05
2023-06-05T09:50:22.311Z,10.77
2023-06-05T09:52:49.541Z,8.82
2023-06-05T09:55:16.580Z,9.23
2023-06-05T09:57:43.873Z,8.20
2023-06-05T10:00:13.173Z,6.20
2023-06-05T10:02:40.389Z,7.03
2023-06-05T10:05:11.149Z,9.07
2023-06-05T10:07:40.191Z,7.28
2023-06-05T10:10:12.515Z,5.60
2023-06-05T10:12:39.944Z,7.07
2023-06-05T10:15:08.108Z,4.90
2023-06-05T10:17:37.962Z,7.18
2023-06-05T10:20:07.769Z,5.93
2023-06-05T10:22:37.677Z,7.60
2023-06-05T10:25:07.363Z,8.27
2023-06-05T10:27:37.375Z,6.85
2023-06-05T10:30:36.672Z,7.82
2023-06-05T10:33:33.457Z,8.07
2023-06-05T10:36:23.222Z,6.85
2023-06-05T10:38:50.139Z,7.10
2023-06-05T10:41:18.794Z,7.12
2023-06-05T10:43:54.208Z,6.57
2023-06-05T10:46:38.287Z,6.28
2023-06-05T10:49:17.309Z,7.32
2023-06-05T10:51:48.115Z,6.68
2023-06-05T10:54:25.292Z,8.75
2023-06-05T10:56:56.830Z,6.10
2023-06-05T10:59:35.539Z,7.30
2023-06-05T11:02:17.825Z,5.32
2023-06-05T11:04:48.135Z,7.00
2023-06-05T11:07:26.258Z,10.48
2023-06-05T11:10:11.727Z,6.60
2023-06-05T11:12:41.536Z,6.60
2023-06-05T11:15:09.899Z,6.72
2023-06-05T11:17:43.435Z,8.38
2023-06-05T11:20:30.660Z,7.35
2023-06-05T11:23:00.564Z,8.02
2023-06-05T11:25:29.372Z,7.85
2023-06-05T11:27:57.929Z,7.57
2023-06-05T11:33:18.750Z,6.50
2023-06-05T11:35:47.871Z,9.77
2023-06-05T11:38:22.057Z,7.10
2023-06-05T11:40:50.966Z,6.82
2023-06-05T11:43:18.241Z,6.97
2023-06-05T11:45:56.035Z,9.40
2023-06-05T11:48:45.098Z,9.52
2023-06-05T11:51:12.140Z,7.93
2023-06-05T11:53:46.180Z,7.18
2023-06-05T11:56:19.126Z,7.57
2023-06-05T11:58:46.653Z,7.82
2023-06-05T12:01:23.773Z,7.50
2023-06-05T12:04:04.164Z,7.40
2023-06-05T12:06:31.115Z,8.27
2023-06-05T12:09:15.570Z,11.55
2023-06-05T12:11:45.636Z,6.78
2023-06-05T12:14:30.683Z,7.70
2023-06-05T12:16:59.809Z,7.47
2023-06-05T12:19:28.290Z,8.48
2023-06-05T12:22:08.158Z,10.35
2023-06-05T12:24:35.262Z,7.03
2023-06-05T12:27:05.319Z,11.68
2023-06-05T12:35:05.639Z,6.80
2023-06-05T12:37:38.770Z,7.30
2023-06-05T12:40:12.068Z,9.80
2023-06-05T12:42:42.217Z,9.38
2023-06-05T12:45:09.586Z,8.50
2023-06-05T12:47:37.335Z,8.00
2023-06-05T12:50:08.875Z,11.40
2023-06-05T12:52:55.914Z,7.75
2023-06-05T12:55:28.640Z,9.15
2023-06-05T13:00:29.126Z,9.63
2023-06-05T13:02:56.153Z,7.68
2023-06-05T13:05:23.080Z,6.75
2023-06-05T13:07:52.575Z,8.00
2023-06-05T13:10:19.534Z,8.02
2023-06-05T13:12:49.313Z,8.38
2023-06-05T13:15:16.412Z,9.57
2023-06-05T13:17:44.770Z,12.35
2023-06-05T13:20:31.936Z,7.10
2023-06-05T13:22:58.853Z,7.35
2023-06-05T13:25:25.740Z,7.03
2023-06-05T13:27:52.619Z,12.50
2023-06-05T13:30:21.631Z,10.48
2023-06-05T13:32:49.536Z,9.38
2023-06-05T13:35:16.418Z,7.62
2023-06-05T13:37:43.300Z,8.10
2023-06-05T13:40:14.113Z,8.70
2023-06-05T13:42:41.197Z,10.15
2023-06-05T13:45:09.043Z,6.20
2023-06-05T13:47:36.167Z,8.77
2023-06-05T13:50:03.983Z,9.90
2023-06-05T13:52:30.956Z,8.82
2023-06-05T13:54:58.636Z,9.27
2023-06-05T13:57:25.500Z,7.50
2023-06-05T13:59:54.416Z,8.20
2023-06-05T14:02:21.275Z,8.95
2023-06-05T14:04:48.184Z,7.68
2023-06-05T14:07:15.343Z,7.90
2023-06-05T14:09:42.773Z,8.13
2023-06-05T14:12:11.161Z,8.45
2023-06-05T14:14:38.188Z,8.98
2023-06-05T14:17:05.171Z,9.77
2023-06-05T14:19:32.146Z,9.00
2023-06-05T14:21:59.060Z,6.57
2023-06-05T14:24:25.976Z,7.53
2023-06-05T14:26:54.985Z,7.22
2023-06-05T14:29:21.886Z,7.85
2023-06-05T14:31:48.946Z,8.80
2023-06-05T14:34:16.917Z,6.53
2023-06-05T14:36:51.324Z,9.70
2023-06-05T14:39:20.003Z,8.98
2023-06-05T14:41:46.921Z,8.93
2023-06-05T14:44:22.376Z,7.55
2023-06-05T14:46:50.837Z,7.85
2023-06-05T14:49:19.620Z,7.35
2023-06-05T14:51:46.803Z,9.00
2023-06-05T14:54:14.576Z,9.82
2023-06-05T14:56:41.465Z,8.85
2023-06-05T14:59:18.632Z,7.90
2023-06-05T15:01:52.607Z,8.77
2023-06-05T15:04:19.664Z,6.90
2023-06-05T15:06:47.450Z,7.25
2023-06-05T15:09:15.688Z,9.73
2023-06-05T15:11:42.586Z,9.00
2023-06-05T15:14:09.465Z,8.50
2023-06-05T15:16:42.063Z,10.07
2023-06-05T15:19:10.220Z,8.88
2023-06-05T15:21:37.844Z,9.05
2023-06-05T15:24:05.145Z,9.90
2023-06-05T15:26:32.202Z,9.57
2023-06-05T15:28:59.104Z,9.25
2023-06-05T15:31:26.124Z,8.50
2023-06-05T15:33:53.031Z,12.43
2023-06-05T15:36:20.012Z,8.50
2023-06-05T15:38:46.957Z,8.13
2023-06-05T15:41:14.757Z,7.65
2023-06-05T15:43:42.155Z,9.40
2023-06-05T15:46:09.930Z,9.13
2023-06-05T15:48:37.090Z,7.78
2023-06-05T15:51:05.484Z,7.95
2023-06-05T15:53:37.416Z,10.65
2023-06-05T15:56:07.160Z,8.90
2023-06-05T15:58:34.145Z,7.87
2023-06-05T16:01:01.091Z,7.85
2023-06-05T16:03:28.078Z,11.00
2023-06-05T16:05:55.034Z,7.50
2023-06-05T16:08:22.908Z,8.07
2023-06-05T16:10:49.822Z,9.68
2023-06-05T16:13:17.600Z,8.75
2023-06-05T16:15:45.221Z,8.25
2023-06-05T16:18:12.229Z,8.57
2023-06-05T16:20:39.151Z,9.25
2023-06-05T16:23:06.202Z,9.10
2023-06-05T16:25:33.165Z,9.20
2023-06-05T16:28:00.146Z,8.50
2023-06-05T16:30:27.071Z,8.80
2023-06-05T16:32:54.068Z,9.13
2023-06-05T16:35:21.364Z,12.10
2023-06-05T16:37:48.290Z,8.93
2023-06-05T16:40:15.269Z,7.82
2023-06-05T16:42:42.470Z,10.25
2023-06-05T16:45:09.629Z,12.07
2023-06-05T16:47:36.944Z,8.90
2023-06-05T16:50:03.981Z,11.60
2023-06-05T16:52:30.939Z,8.98
2023-06-05T16:54:57.819Z,8.90
2023-06-05T16:57:24.788Z,11.75
2023-06-05T16:59:51.916Z,10.15
2023-06-05T17:02:19.010Z,9.43
2023-06-05T17:04:46.441Z,8.35
2023-06-05T17:07:13.632Z,9.73
2023-06-05T17:09:42.309Z,11.75
2023-06-05T17:12:09.413Z,9.27
2023-06-05T17:14:36.386Z,8.65
2023-06-05T17:17:03.355Z,11.12
2023-06-05T17:19:30.264Z,9.15
2023-06-05T17:21:57.149Z,9.55
2023-06-05T17:24:25.778Z,9.63
2023-06-05T17:26:52.743Z,9.05
2023-06-05T17:29:19.841Z,8.80
2023-06-05T17:31:52.762Z,10.60
2023-06-05T17:34:20.519Z,9.82
2023-06-05T17:36:47.444Z,9.32
2023-06-05T17:39:14.484Z,11.02
2023-06-05T17:41:41.424Z,12.45
2023-06-05T17:44:08.321Z,15.00
2023-06-05T17:46:35.215Z,8.82
2023-06-05T17:49:02.428Z,10.45
2023-06-05T17:51:29.560Z,13.82
2023-06-05T17:53:56.757Z,15.75
2023-06-05T17:56:23.901Z,11.43
2023-06-05T17:58:50.882Z,12.00
2023-06-05T18:01:18.641Z,12.50
2023-06-05T18:03:46.564Z,11.15
2023-06-05T18:06:13.654Z,12.10
2023-06-05T18:08:40.848Z,11.10
2023-06-05T18:11:08.053Z,11.70
2023-06-05T18:13:35.191Z,16.67
2023-06-05T18:16:03.990Z,13.95
2023-06-05T18:18:31.102Z,9.90
2023-06-05T18:20:58.021Z,10.38
2023-06-05T18:23:25.007Z,11.00
2023-06-05T18:25:51.946Z,9.10
2023-06-05T18:28:18.836Z,10.43
2023-06-05T18:30:45.896Z,10.75
2023-06-05T18:33:13.324Z,10.45
2023-06-05T18:35:41.937Z,10.55
2023-06-05T18:38:10.480Z,8.73
2023-06-05T18:40:37.833Z,13.57
2023-06-05T18:43:04.771Z,12.65
2023-06-05T18:45:33.760Z,9.45
2023-06-05T18:48:00.793Z,9.95
2023-06-05T18:50:28.571Z,9.95
2023-06-05T18:52:55.718Z,9.85
2023-06-05T18:55:22.698Z,10.45
2023-06-05T18:57:49.571Z,10.27
2023-06-05T19:00:16.911Z,10.65
2023-06-05T19:02:43.826Z,9.40
2023-06-05T19:05:10.932Z,11.88
2023-06-05T19:07:37.921Z,9.85
2023-06-05T19:10:07.110Z,9.30
2023-06-05T19:12:38.378Z,10.07
2023-06-05T19:15:05.654Z,9.88
2023-06-05T19:17:32.598Z,10.45
2023-06-05T19:19:59.522Z,9.73
2023-06-05T19:22:26.495Z,11.65
2023-06-05T19:24:53.372Z,13.10
2023-06-05T19:27:22.614Z,12.35
2023-06-05T19:29:50.520Z,12.00
2023-06-05T19:32:17.677Z,9.70
2023-06-05T19:34:44.637Z,11.60
2023-06-05T19:37:11.697Z,13.15
2023-06-05T19:39:38.632Z,11.35
2023-06-05T19:42:07.022Z,13.43
2023-06-05T19:44:35.172Z,10.38
2023-06-05T19:47:02.061Z,10.70
2023-06-05T19:49:28.909Z,10.63
2023-06-05T19:51:55.965Z,11.73
2023-06-05T19:54:22.846Z,12.80
2023-06-05T19:56:50.916Z,10.60
2023-06-05T19:59:17.814Z,11.12
2023-06-05T20:01:44.930Z,10.27
2023-06-05T20:04:12.038Z,12.20
2023-06-05T20:06:38.960Z,13.88
2023-06-05T20:09:05.906Z,11.40
2023-06-05T20:11:33.099Z,12.52
2023-06-05T20:13:59.968Z,13.07
2023-06-05T20:16:26.891Z,16.58
2023-06-05T20:18:53.841Z,12.57
2023-06-05T20:21:20.848Z,11.93
2023-06-05T20:23:51.703Z,11.82
2023-06-05T20:26:19.358Z,11.88
2023-06-05T20:28:46.404Z,12.35
2023-06-05T20:31:13.542Z,12.50
2023-06-05T20:33:40.655Z,12.57
2023-06-05T20:36:11.219Z,13.15
2023-06-05T20:38:39.180Z,11.20
2023-06-05T20:41:09.345Z,11.07
2023-06-05T20:43:36.949Z,12.15
2023-06-05T20:46:07.896Z,11.93
2023-06-05T20:48:37.096Z,12.65
2023-06-05T20:51:09.172Z,14.48
2023-06-05T20:53:37.715Z,12.23
2023-06-05T20:56:05.638Z,10.70
2023-06-05T20:58:32.900Z,11.95
2023-06-05T21:00:59.855Z,13.20
2023-06-05T21:03:26.844Z,14.15
2023-06-05T21:05:53.867Z,8.20
2023-06-05T21:08:20.825Z,13.13
2023-06-05T21:10:47.743Z,11.55
2023-06-05T21:13:14.610Z,16.00
2023-06-05T21:15:41.490Z,10.98
2023-06-05T21:18:08.481Z,11.85
2023-06-05T21:20:35.681Z,15.82
2023-06-05T21:23:02.564Z,13.13
2023-06-05T21:25:29.517Z,13.85
2023-06-05T21:27:56.412Z,15.43
2023-06-05T21:30:23.258Z,13.15
2023-06-05T21:32:50.801Z,15.93
2023-06-05T21:35:17.796Z,13.68
2023-06-05T21:37:44.692Z,11.95
2023-06-05T21:40:11.951Z,13.38
2023-06-05T21:42:38.809Z,12.75
2023-06-05T21:45:06.544Z,14.15
2023-06-05T21:47:33.488Z,13.10
2023-06-05T21:50:00.517Z,12.50
2023-06-05T21:52:27.602Z,14.02
2023-06-05T21:54:56.218Z,12.48
2023-06-05T21:57:23.124Z,11.00
2023-06-05T21:59:50.032Z,15.10
2023-06-05T22:02:17.054Z,11.38
2023-06-05T22:04:45.196Z,15.68
2023-06-05T22:07:12.965Z,13.90
2023-06-05T22:09:39.854Z,11.07
2023-06-05T22:12:07.777Z,14.15
2023-06-05T22:14:34.671Z,12.85
2023-06-05T22:17:01.583Z,15.70
2023-06-05T22:19:29.056Z,13.15
2023-06-05T22:21:57.395Z,15.30
2023-06-05T22:24:24.834Z,14.13
2023-06-05T22:26:51.748Z,13.93
2023-06-05T22:29:18.616Z,15.25
2023-06-05T22:31:45.592Z,12.98
2023-06-05T22:34:12.557Z,14.65
2023-06-05T22:36:40.579Z,13.80
2023-06-05T22:39:07.497Z,14.05
2023-06-05T22:41:34.666Z,13.38
2023-06-05T22:44:01.521Z,14.27
2023-06-05T22:46:28.419Z,12.82
2023-06-05T22:48:55.738Z,13.88
2023-06-05T22:51:25.451Z,13.18
2023-06-05T22:53:52.876Z,13.77
2023-06-05T22:56:19.873Z,13.65
2023-06-05T22:58:47.022Z,14.70
2023-06-05T23:01:17.743Z,16.40
2023-06-05T23:03:45.377Z,29.27
2023-06-05T23:06:12.461Z,14.57
2023-06-05T23:08:39.388Z,14.57
2023-06-05T23:11:06.246Z,15.75
2023-06-05T23:13:33.118Z,14.90
2023-06-05T23:16:00.472Z,13.93
2023-06-05T23:18:27.386Z,16.00
2023-06-05T23:20:54.286Z,17.30
2023-06-05T23:23:21.357Z,17.02
2023-06-05T23:25:49.386Z,14.13
2023-06-05T23:28:17.091Z,12.93
2023-06-05T23:30:44.171Z,12.48
2023-06-05T23:33:13.647Z,16.62
2023-06-05T23:35:41.506Z,13.88
2023-06-05T23:38:08.538Z,13.98
2023-06-05T23:40:35.538Z,14.15
2023-06-05T23:43:03.099Z,12.52
2023-06-05T23:45:31.213Z,12.13
2023-06-05T23:47:58.937Z,12.35
2023-06-05T23:50:26.300Z,12.82
2023-06-05T23:52:55.190Z,14.87
2023-06-05T23:55:24.742Z,13.73
2023-06-05T23:57:52.874Z,14.40
